Elbella — 9HA2358 — position and weather

sailwx.info

Track history (hours):
 
Tides and Currents Weather Stations Pressure Air Temp Water Temp Dewpoint Dewpoint Depression Visibility Wind Speed Wind Dir Waves Ship Positions

Elbella

Last reported at 2014-Dec-15 20:09 UTC. Time now 2014-Dec-19 16:33 UTC.
Position N 34°47' E 023°16'.

Length 176 m; draft 8.6 m.

Type: Ship (hazmat cat A). MMSI: 248422000.

Date/timePositionNaut miles runAvg speedWind from/ knotsBaromVisibWave heightAir tempDewpointWater temp
2014-Dec-15 20:09N 34°47' E 023°16'1316.7
2014-Dec-15 19:21N 34°50' E 023°00'  
2014-Dec-11 21:33N 35°51' E 024°07'1716.9
2014-Dec-11 20:33N 35°54' E 024°27'1616.2
2014-Dec-11 19:33N 35°57' E 024°47'1717.3
2014-Dec-11 18:33N 35°59' E 025°08'1717.0
2014-Dec-11 17:33N 36°02' E 025°29'1717.1
2014-Dec-11 16:33N 36°04' E 025°50'1717.0
2014-Dec-11 15:32N 36°07' E 026°11'1616.8
2014-Dec-11 14:33N 36°07' E 026°32'  
Track history (hours):
 
Tides and Currents Weather Stations Pressure Air Temp Water Temp Dewpoint Dewpoint Depression Visibility Wind Speed Wind Dir Waves Ship Positions

Elbella

Last reported at 2014-Dec-15 20:09 UTC. Time now 2014-Dec-19 16:33 UTC.
Position N 34°47' E 023°16'.

Length 176 m; draft 8.6 m.

Type: Ship (hazmat cat A). MMSI: 248422000.

Date/timePositionNaut miles runAvg speedWind from/ knotsBaromVisibWave heightAir tempDewpointWater temp
2014-Dec-15 20:09N 34°47' E 023°16'1316.7
2014-Dec-15 19:21N 34°50' E 023°00'  
2014-Dec-11 21:33N 35°51' E 024°07'1716.9
2014-Dec-11 20:33N 35°54' E 024°27'1616.2
2014-Dec-11 19:33N 35°57' E 024°47'1717.3
2014-Dec-11 18:33N 35°59' E 025°08'1717.0
2014-Dec-11 17:33N 36°02' E 025°29'1717.1
2014-Dec-11 16:33N 36°04' E 025°50'1717.0
2014-Dec-11 15:32N 36°07' E 026°11'1616.8
2014-Dec-11 14:33N 36°07' E 026°32'  

Dump ship's entire track history